sensor_id;sensor_type;location;lat;lon;timestamp;pressure;altitude;pressure_sealevel;temperature;humidity
26531;BME280;14201;43.188;24.160;2023-05-07T00:02:24;99888.44;;;12.82;80.41
26531;BME280;14201;43.188;24.160;2023-05-07T00:04:49;99895.22;;;12.76;81.28
26531;BME280;14201;43.188;24.160;2023-05-07T00:07:15;99892.31;;;12.69;81.96
26531;BME280;14201;43.188;24.160;2023-05-07T00:09:41;99887.63;;;12.60;81.72
26531;BME280;14201;43.188;24.160;2023-05-07T00:12:07;99891.91;;;12.58;81.55
26531;BME280;14201;43.188;24.160;2023-05-07T00:14:32;99889.69;;;12.69;79.78
26531;BME280;14201;43.188;24.160;2023-05-07T00:16:58;99879.97;;;12.65;79.53
26531;BME280;14201;43.188;24.160;2023-05-07T00:19:24;99880.69;;;12.60;79.71
26531;BME280;14201;43.188;24.160;2023-05-07T00:21:49;99889.47;;;12.63;80.28
26531;BME280;14201;43.188;24.160;2023-05-07T00:24:15;99873.78;;;12.63;80.11
26531;BME280;14201;43.188;24.160;2023-05-07T00:26:40;99877.28;;;12.63;80.33
26531;BME280;14201;43.188;24.160;2023-05-07T00:29:06;99890.41;;;12.65;79.55
26531;BME280;14201;43.188;24.160;2023-05-07T00:31:31;99892.81;;;12.58;80.59
26531;BME280;14201;43.188;24.160;2023-05-07T00:33:57;99898.19;;;12.63;81.54
26531;BME280;14201;43.188;24.160;2023-05-07T00:36:22;99890.84;;;12.53;79.07
26531;BME280;14201;43.188;24.160;2023-05-07T00:38:48;99891.38;;;12.44;79.06
26531;BME280;14201;43.188;24.160;2023-05-07T00:41:13;99881.47;;;12.35;80.15
26531;BME280;14201;43.188;24.160;2023-05-07T00:43:39;99883.22;;;12.36;80.69
26531;BME280;14201;43.188;24.160;2023-05-07T00:46:05;99891.13;;;12.38;80.50
26531;BME280;14201;43.188;24.160;2023-05-07T00:48:31;99889.88;;;12.28;80.61
26531;BME280;14201;43.188;24.160;2023-05-07T00:50:57;99895.50;;;12.16;80.17
26531;BME280;14201;43.188;24.160;2023-05-07T00:53:22;99898.00;;;12.13;77.93
26531;BME280;14201;43.188;24.160;2023-05-07T00:55:48;99902.25;;;12.11;79.92
26531;BME280;14201;43.188;24.160;2023-05-07T00:58:14;99905.06;;;12.16;80.33
26531;BME280;14201;43.188;24.160;2023-05-07T01:00:40;99907.47;;;12.11;80.58
26531;BME280;14201;43.188;24.160;2023-05-07T01:03:05;99895.28;;;12.10;80.48
26531;BME280;14201;43.188;24.160;2023-05-07T01:05:31;99893.38;;;12.06;78.71
26531;BME280;14201;43.188;24.160;2023-05-07T01:07:57;99898.03;;;11.92;78.12
26531;BME280;14201;43.188;24.160;2023-05-07T01:10:24;99888.53;;;11.73;77.72
26531;BME280;14201;43.188;24.160;2023-05-07T01:12:50;99896.63;;;11.39;76.81
26531;BME280;14201;43.188;24.160;2023-05-07T01:15:16;99896.44;;;11.34;77.77
26531;BME280;14201;43.188;24.160;2023-05-07T01:17:42;99876.22;;;11.29;79.16
26531;BME280;14201;43.188;24.160;2023-05-07T01:20:09;99885.44;;;11.41;80.91
26531;BME280;14201;43.188;24.160;2023-05-07T01:22:40;99893.31;;;11.43;79.97
26531;BME280;14201;43.188;24.160;2023-05-07T01:25:07;99903.75;;;11.43;80.74
26531;BME280;14201;43.188;24.160;2023-05-07T01:27:33;99905.66;;;11.47;81.27
26531;BME280;14201;43.188;24.160;2023-05-07T01:30:00;99883.78;;;11.43;81.39
26531;BME280;14201;43.188;24.160;2023-05-07T01:35:07;99894.50;;;11.50;80.85
26531;BME280;14201;43.188;24.160;2023-05-07T01:37:35;99896.25;;;11.51;81.94
26531;BME280;14201;43.188;24.160;2023-05-07T01:40:02;99891.41;;;11.39;82.88
26531;BME280;14201;43.188;24.160;2023-05-07T01:42:29;99888.09;;;11.43;82.42
26531;BME280;14201;43.188;24.160;2023-05-07T01:44:55;99892.19;;;11.36;82.89
26531;BME280;14201;43.188;24.160;2023-05-07T01:47:21;99878.44;;;11.40;82.43
26531;BME280;14201;43.188;24.160;2023-05-07T01:49:46;99870.88;;;11.47;81.84
26531;BME280;14201;43.188;24.160;2023-05-07T01:52:13;99873.50;;;11.47;81.17
26531;BME280;14201;43.188;24.160;2023-05-07T01:54:39;99876.03;;;11.45;81.00
26531;BME280;14201;43.188;24.160;2023-05-07T01:57:04;99874.28;;;11.46;81.71
26531;BME280;14201;43.188;24.160;2023-05-07T01:59:30;99870.69;;;11.42;81.57
26531;BME280;14201;43.188;24.160;2023-05-07T02:01:56;99862.53;;;11.34;81.39
26531;BME280;14201;43.188;24.160;2023-05-07T02:04:21;99879.06;;;11.35;81.65
26531;BME280;14201;43.188;24.160;2023-05-07T02:06:47;99875.72;;;11.18;81.32
26531;BME280;14201;43.188;24.160;2023-05-07T02:09:13;99867.84;;;10.97;82.39
26531;BME280;14201;43.188;24.160;2023-05-07T02:11:40;99866.69;;;10.71;83.06
26531;BME280;14201;43.188;24.160;2023-05-07T02:14:05;99869.72;;;10.80;83.60
26531;BME280;14201;43.188;24.160;2023-05-07T02:16:31;99860.38;;;10.85;83.11
26531;BME280;14201;43.188;24.160;2023-05-07T02:18:56;99868.28;;;10.87;82.38
26531;BME280;14201;43.188;24.160;2023-05-07T02:21:23;99861.91;;;10.80;83.14
26531;BME280;14201;43.188;24.160;2023-05-07T02:23:49;99854.91;;;10.79;83.12
26531;BME280;14201;43.188;24.160;2023-05-07T02:26:14;99858.53;;;10.63;83.94
26531;BME280;14201;43.188;24.160;2023-05-07T02:28:40;99851.53;;;10.62;84.31
26531;BME280;14201;43.188;24.160;2023-05-07T02:31:05;99857.84;;;10.30;86.37
26531;BME280;14201;43.188;24.160;2023-05-07T02:33:31;99857.63;;;10.43;86.16
26531;BME280;14201;43.188;24.160;2023-05-07T02:35:59;99851.19;;;10.54;84.82
26531;BME280;14201;43.188;24.160;2023-05-07T02:38:30;99855.69;;;10.58;85.41
26531;BME280;14201;43.188;24.160;2023-05-07T02:40:55;99853.53;;;10.68;84.33
26531;BME280;14201;43.188;24.160;2023-05-07T02:43:20;99846.66;;;10.70;83.94
26531;BME280;14201;43.188;24.160;2023-05-07T02:45:46;99852.66;;;10.67;84.57
26531;BME280;14201;43.188;24.160;2023-05-07T02:48:11;99853.53;;;10.68;84.79
26531;BME280;14201;43.188;24.160;2023-05-07T02:50:37;99849.84;;;10.62;84.78
26531;BME280;14201;43.188;24.160;2023-05-07T02:53:03;99850.66;;;10.61;85.32
26531;BME280;14201;43.188;24.160;2023-05-07T02:55:28;99849.00;;;10.63;85.34
26531;BME280;14201;43.188;24.160;2023-05-07T02:57:54;99850.81;;;10.64;83.32
26531;BME280;14201;43.188;24.160;2023-05-07T03:00:20;99845.63;;;10.66;82.82
26531;BME280;14201;43.188;24.160;2023-05-07T03:02:46;99844.22;;;10.53;83.95
26531;BME280;14201;43.188;24.160;2023-05-07T03:05:11;99848.13;;;10.63;84.58
26531;BME280;14201;43.188;24.160;2023-05-07T03:07:38;99848.03;;;10.61;84.85
26531;BME280;14201;43.188;24.160;2023-05-07T03:10:04;99853.53;;;10.68;84.37
26531;BME280;14201;43.188;24.160;2023-05-07T03:12:30;99853.69;;;10.71;83.60
26531;BME280;14201;43.188;24.160;2023-05-07T03:14:56;99851.25;;;10.56;81.54
26531;BME280;14201;43.188;24.160;2023-05-07T03:17:22;99858.53;;;10.43;80.58
26531;BME280;14201;43.188;24.160;2023-05-07T03:19:47;99850.78;;;10.45;81.96
26531;BME280;14201;43.188;24.160;2023-05-07T03:22:13;99856.28;;;10.51;84.87
26531;BME280;14201;43.188;24.160;2023-05-07T03:24:39;99856.78;;;10.44;83.77
26531;BME280;14201;43.188;24.160;2023-05-07T03:27:04;99858.59;;;10.45;83.76
26531;BME280;14201;43.188;24.160;2023-05-07T03:29:30;99854.47;;;10.50;84.88
26531;BME280;14201;43.188;24.160;2023-05-07T03:31:55;99859.00;;;10.54;85.80
26531;BME280;14201;43.188;24.160;2023-05-07T03:34:21;99859.06;;;10.56;85.95
26531;BME280;14201;43.188;24.160;2023-05-07T03:36:50;99871.31;;;10.58;81.02
26531;BME280;14201;43.188;24.160;2023-05-07T03:39:16;99872.81;;;10.34;79.69
26531;BME280;14201;43.188;24.160;2023-05-07T03:41:41;99865.97;;;10.36;79.83
26531;BME280;14201;43.188;24.160;2023-05-07T03:44:07;99862.88;;;10.44;81.49
26531;BME280;14201;43.188;24.160;2023-05-07T03:46:33;99871.75;;;10.48;84.04
26531;BME280;14201;43.188;24.160;2023-05-07T03:48:59;99869.13;;;10.48;84.50
26531;BME280;14201;43.188;24.160;2023-05-07T03:51:24;99870.88;;;10.67;84.96
26531;BME280;14201;43.188;24.160;2023-05-07T03:53:51;99871.69;;;10.86;84.86
26531;BME280;14201;43.188;24.160;2023-05-07T03:56:18;99866.81;;;10.93;85.53
26531;BME280;14201;43.188;24.160;2023-05-07T03:58:44;99860.38;;;11.04;86.01
26531;BME280;14201;43.188;24.160;2023-05-07T04:01:10;99878.47;;;11.21;85.02
26531;BME280;14201;43.188;24.160;2023-05-07T04:03:36;99882.31;;;11.29;82.72
26531;BME280;14201;43.188;24.160;2023-05-07T04:06:02;99881.88;;;11.39;82.33
26531;BME280;14201;43.188;24.160;2023-05-07T04:08:27;99889.13;;;11.47;83.16
26531;BME280;14201;43.188;24.160;2023-05-07T04:10:57;99895.56;;;11.55;83.42
26531;BME280;14201;43.188;24.160;2023-05-07T04:13:23;99891.69;;;11.66;84.04
26531;BME280;14201;43.188;24.160;2023-05-07T04:15:48;99890.28;;;11.74;82.86
26531;BME280;14201;43.188;24.160;2023-05-07T04:18:14;99882.78;;;11.61;82.64
26531;BME280;14201;43.188;24.160;2023-05-07T04:20:40;99887.03;;;11.80;83.12
26531;BME280;14201;43.188;24.160;2023-05-07T04:23:07;99889.91;;;12.07;83.21
26531;BME280;14201;43.188;24.160;2023-05-07T04:25:32;99899.72;;;12.13;83.88
26531;BME280;14201;43.188;24.160;2023-05-07T04:27:58;99904.53;;;12.25;83.04
26531;BME280;14201;43.188;24.160;2023-05-07T04:30:24;99904.09;;;12.35;83.08
26531;BME280;14201;43.188;24.160;2023-05-07T04:32:50;99905.28;;;12.43;83.60
26531;BME280;14201;43.188;24.160;2023-05-07T04:35:15;99896.81;;;12.50;85.71
26531;BME280;14201;43.188;24.160;2023-05-07T04:37:41;99912.56;;;12.97;84.04
26531;BME280;14201;43.188;24.160;2023-05-07T04:40:07;99911.25;;;13.10;85.32
26531;BME280;14201;43.188;24.160;2023-05-07T04:42:32;99918.44;;;13.39;82.88
26531;BME280;14201;43.188;24.160;2023-05-07T04:44:58;99910.09;;;13.50;82.99
26531;BME280;14201;43.188;24.160;2023-05-07T04:47:24;99907.00;;;13.62;83.81
26531;BME280;14201;43.188;24.160;2023-05-07T04:49:49;99900.44;;;13.74;83.76
26531;BME280;14201;43.188;24.160;2023-05-07T04:52:15;99908.06;;;13.92;82.35
26531;BME280;14201;43.188;24.160;2023-05-07T04:54:40;99915.38;;;14.03;83.38
26531;BME280;14201;43.188;24.160;2023-05-07T04:57:06;99915.97;;;14.21;83.04
26531;BME280;14201;43.188;24.160;2023-05-07T04:59:32;99922.41;;;14.60;82.06
26531;BME280;14201;43.188;24.160;2023-05-07T05:01:58;99917.28;;;14.91;80.49
26531;BME280;14201;43.188;24.160;2023-05-07T05:04:23;99920.41;;;15.10;79.51
26531;BME280;14201;43.188;24.160;2023-05-07T05:06:49;99911.91;;;14.88;81.99
26531;BME280;14201;43.188;24.160;2023-05-07T05:09:15;99910.50;;;15.00;82.96
26531;BME280;14201;43.188;24.160;2023-05-07T05:11:41;99915.72;;;15.30;80.90
26531;BME280;14201;43.188;24.160;2023-05-07T05:14:06;99915.44;;;15.51;78.71
26531;BME280;14201;43.188;24.160;2023-05-07T05:16:32;99923.09;;;15.75;78.21
26531;BME280;14201;43.188;24.160;2023-05-07T05:18:58;99924.72;;;15.71;77.52
26531;BME280;14201;43.188;24.160;2023-05-07T05:21:23;99924.91;;;15.78;79.70
26531;BME280;14201;43.188;24.160;2023-05-07T05:23:49;99924.06;;;16.13;77.71
26531;BME280;14201;43.188;24.160;2023-05-07T05:26:15;99925.38;;;16.32;75.33
26531;BME280;14201;43.188;24.160;2023-05-07T05:28:41;99930.19;;;16.50;74.82
26531;BME280;14201;43.188;24.160;2023-05-07T05:31:06;99933.81;;;16.56;74.66
26531;BME280;14201;43.188;24.160;2023-05-07T05:33:32;99940.34;;;16.74;73.53
26531;BME280;14201;43.188;24.160;2023-05-07T05:35:57;99932.78;;;16.88;74.33
26531;BME280;14201;43.188;24.160;2023-05-07T05:38:23;99946.94;;;16.93;74.29
26531;BME280;14201;43.188;24.160;2023-05-07T05:40:48;99944.56;;;17.04;74.37
26531;BME280;14201;43.188;24.160;2023-05-07T05:43:14;99940.53;;;17.23;74.15
26531;BME280;14201;43.188;24.160;2023-05-07T05:45:40;99950.69;;;17.47;73.41
26531;BME280;14201;43.188;24.160;2023-05-07T05:48:06;99942.97;;;17.58;73.31
26531;BME280;14201;43.188;24.160;2023-05-07T05:50:31;99944.19;;;17.77;72.34
26531;BME280;14201;43.188;24.160;2023-05-07T05:52:57;99940.59;;;17.74;69.58
26531;BME280;14201;43.188;24.160;2023-05-07T05:55:23;99938.28;;;17.87;71.51
26531;BME280;14201;43.188;24.160;2023-05-07T05:57:49;99944.63;;;18.00;70.23
26531;BME280;14201;43.188;24.160;2023-05-07T06:00:15;99941.09;;;17.98;70.15
26531;BME280;14201;43.188;24.160;2023-05-07T06:02:41;99949.97;;;18.03;69.94
26531;BME280;14201;43.188;24.160;2023-05-07T06:05:08;99945.88;;;18.21;70.23
26531;BME280;14201;43.188;24.160;2023-05-07T06:07:34;99935.72;;;18.47;70.42
26531;BME280;14201;43.188;24.160;2023-05-07T06:10:00;99940.97;;;18.45;69.21
26531;BME280;14201;43.188;24.160;2023-05-07T06:12:26;99937.72;;;18.65;70.26
26531;BME280;14201;43.188;24.160;2023-05-07T06:14:51;99934.28;;;18.69;68.78
26531;BME280;14201;43.188;24.160;2023-05-07T06:17:17;99931.81;;;18.80;67.99
26531;BME280;14201;43.188;24.160;2023-05-07T06:19:43;99933.28;;;18.62;67.79
26531;BME280;14201;43.188;24.160;2023-05-07T06:22:08;99933.38;;;18.68;67.44
26531;BME280;14201;43.188;24.160;2023-05-07T06:24:35;99935.00;;;18.59;68.83
26531;BME280;14201;43.188;24.160;2023-05-07T06:27:00;99933.53;;;18.79;69.50
26531;BME280;14201;43.188;24.160;2023-05-07T06:29:26;99922.09;;;18.77;69.38
26531;BME280;14201;43.188;24.160;2023-05-07T06:31:52;99925.72;;;18.85;68.16
26531;BME280;14201;43.188;24.160;2023-05-07T06:34:18;99923.31;;;19.02;69.09
26531;BME280;14201;43.188;24.160;2023-05-07T06:36:43;99935.88;;;19.22;66.75
26531;BME280;14201;43.188;24.160;2023-05-07T06:39:09;99921.22;;;19.50;65.63
26531;BME280;14201;43.188;24.160;2023-05-07T06:41:34;99928.63;;;19.85;61.56
26531;BME280;14201;43.188;24.160;2023-05-07T06:44:02;99919.91;;;19.92;62.15
26531;BME280;14201;43.188;24.160;2023-05-07T06:46:27;99928.25;;;20.41;61.14
26531;BME280;14201;43.188;24.160;2023-05-07T06:48:53;99925.91;;;20.91;62.22
26531;BME280;14201;43.188;24.160;2023-05-07T06:51:18;99927.69;;;20.96;60.84
26531;BME280;14201;43.188;24.160;2023-05-07T06:53:43;99919.78;;;21.02;54.76
26531;BME280;14201;43.188;24.160;2023-05-07T06:56:09;99926.00;;;21.14;54.39
26531;BME280;14201;43.188;24.160;2023-05-07T06:58:34;99925.16;;;21.19;56.24
26531;BME280;14201;43.188;24.160;2023-05-07T07:01:00;99920.69;;;21.17;56.64
26531;BME280;14201;43.188;24.160;2023-05-07T07:03:25;99919.94;;;21.47;56.30
26531;BME280;14201;43.188;24.160;2023-05-07T07:05:51;99931.50;;;21.74;56.77
26531;BME280;14201;43.188;24.160;2023-05-07T07:08:17;99920.03;;;22.07;56.40
26531;BME280;14201;43.188;24.160;2023-05-07T07:10:43;99927.97;;;22.06;53.79
26531;BME280;14201;43.188;24.160;2023-05-07T07:13:08;99938.59;;;22.18;53.11
26531;BME280;14201;43.188;24.160;2023-05-07T07:15:33;99940.38;;;22.25;52.41
26531;BME280;14201;43.188;24.160;2023-05-07T07:17:59;99937.72;;;22.42;52.56
26531;BME280;14201;43.188;24.160;2023-05-07T07:20:24;99936.75;;;22.81;52.55
26531;BME280;14201;43.188;24.160;2023-05-07T07:22:50;99934.91;;;23.14;51.97
26531;BME280;14201;43.188;24.160;2023-05-07T07:25:15;99929.47;;;23.39;49.69
26531;BME280;14201;43.188;24.160;2023-05-07T07:27:40;99921.31;;;23.71;52.79
26531;BME280;14201;43.188;24.160;2023-05-07T07:30:06;99930.78;;;24.14;51.08
26531;BME280;14201;43.188;24.160;2023-05-07T07:32:32;99922.59;;;24.37;46.92
26531;BME280;14201;43.188;24.160;2023-05-07T07:34:58;99924.03;;;24.70;49.45
26531;BME280;14201;43.188;24.160;2023-05-07T07:37:23;99934.28;;;25.06;48.79
26531;BME280;14201;43.188;24.160;2023-05-07T07:39:50;99931.75;;;24.95;45.60
26531;BME280;14201;43.188;24.160;2023-05-07T07:42:16;99935.63;;;24.66;43.99
26531;BME280;14201;43.188;24.160;2023-05-07T07:44:41;99929.22;;;24.86;44.07
26531;BME280;14201;43.188;24.160;2023-05-07T07:47:06;99935.56;;;24.71;44.24
26531;BME280;14201;43.188;24.160;2023-05-07T07:49:32;99934.44;;;24.93;46.51
26531;BME280;14201;43.188;24.160;2023-05-07T07:51:57;99934.13;;;25.18;46.37
26531;BME280;14201;43.188;24.160;2023-05-07T07:54:24;99931.44;;;25.20;46.22
26531;BME280;14201;43.188;24.160;2023-05-07T07:56:50;99936.00;;;25.11;46.41
26531;BME280;14201;43.188;24.160;2023-05-07T07:59:15;99924.59;;;24.09;49.01
26531;BME280;14201;43.188;24.160;2023-05-07T08:01:44;99923.72;;;24.07;48.65
26531;BME280;14201;43.188;24.160;2023-05-07T08:04:10;99919.88;;;24.38;47.20
26531;BME280;14201;43.188;24.160;2023-05-07T08:06:35;99922.88;;;24.93;47.43
26531;BME280;14201;43.188;24.160;2023-05-07T08:09:00;99929.66;;;25.20;49.09
26531;BME280;14201;43.188;24.160;2023-05-07T08:11:26;99924.34;;;24.38;47.70
26531;BME280;14201;43.188;24.160;2023-05-07T08:13:52;99921.91;;;25.02;48.50
26531;BME280;14201;43.188;24.160;2023-05-07T08:16:17;99922.63;;;25.14;45.48
26531;BME280;14201;43.188;24.160;2023-05-07T08:18:43;99917.16;;;25.28;45.25
26531;BME280;14201;43.188;24.160;2023-05-07T08:21:08;99928.88;;;25.13;43.48
26531;BME280;14201;43.188;24.160;2023-05-07T08:23:33;99910.88;;;25.31;44.96
26531;BME280;14201;43.188;24.160;2023-05-07T08:25:59;99917.41;;;25.70;44.58
26531;BME280;14201;43.188;24.160;2023-05-07T08:28:25;99917.81;;;26.05;44.10
26531;BME280;14201;43.188;24.160;2023-05-07T08:30:50;99916.06;;;26.04;43.09
26531;BME280;14201;43.188;24.160;2023-05-07T08:33:16;99913.81;;;26.30;44.41
26531;BME280;14201;43.188;24.160;2023-05-07T08:35:41;99915.34;;;26.44;41.13
26531;BME280;14201;43.188;24.160;2023-05-07T08:38:07;99906.69;;;26.31;42.04
26531;BME280;14201;43.188;24.160;2023-05-07T08:40:34;99901.78;;;26.05;40.67
26531;BME280;14201;43.188;24.160;2023-05-07T08:43:01;99915.91;;;25.54;41.03
26531;BME280;14201;43.188;24.160;2023-05-07T08:45:27;99902.88;;;25.31;41.58
26531;BME280;14201;43.188;24.160;2023-05-07T08:47:55;99910.97;;;25.85;41.25
26531;BME280;14201;43.188;24.160;2023-05-07T08:50:23;99896.19;;;26.20;40.39
26531;BME280;14201;43.188;24.160;2023-05-07T08:52:49;99894.22;;;26.31;38.66
26531;BME280;14201;43.188;24.160;2023-05-07T08:55:15;99899.97;;;26.58;38.25
26531;BME280;14201;43.188;24.160;2023-05-07T08:57:40;99894.59;;;26.10;38.94
26531;BME280;14201;43.188;24.160;2023-05-07T09:00:06;99898.28;;;26.03;38.77
26531;BME280;14201;43.188;24.160;2023-05-07T09:02:32;99899.97;;;26.07;40.21
26531;BME280;14201;43.188;24.160;2023-05-07T09:04:58;99891.06;;;26.08;39.29
26531;BME280;14201;43.188;24.160;2023-05-07T09:07:23;99883.09;;;26.06;40.12
26531;BME280;14201;43.188;24.160;2023-05-07T09:09:50;99880.75;;;26.36;40.19
26531;BME280;14201;43.188;24.160;2023-05-07T09:12:16;99881.59;;;26.40;38.55
26531;BME280;14201;43.188;24.160;2023-05-07T09:14:41;99889.44;;;26.49;38.58
26531;BME280;14201;43.188;24.160;2023-05-07T09:17:07;99891.78;;;26.67;39.36
26531;BME280;14201;43.188;24.160;2023-05-07T09:19:32;99891.53;;;26.80;38.62
26531;BME280;14201;43.188;24.160;2023-05-07T09:24:26;99880.78;;;26.35;37.58
26531;BME280;14201;43.188;24.160;2023-05-07T09:26:53;99875.50;;;26.80;37.98
26531;BME280;14201;43.188;24.160;2023-05-07T09:29:20;99880.59;;;26.45;36.31
26531;BME280;14201;43.188;24.160;2023-05-07T09:31:45;99880.78;;;26.83;40.37
26531;BME280;14201;43.188;24.160;2023-05-07T09:34:11;99863.63;;;27.35;36.76
26531;BME280;14201;43.188;24.160;2023-05-07T09:36:36;99873.03;;;27.91;36.97
26531;BME280;14201;43.188;24.160;2023-05-07T09:39:02;99865.72;;;28.32;34.75
26531;BME280;14201;43.188;24.160;2023-05-07T09:41:27;99858.09;;;28.16;34.47
26531;BME280;14201;43.188;24.160;2023-05-07T09:43:55;99864.19;;;27.49;34.16
26531;BME280;14201;43.188;24.160;2023-05-07T09:46:25;99855.66;;;27.34;34.88
26531;BME280;14201;43.188;24.160;2023-05-07T09:48:53;99859.97;;;27.39;36.06
26531;BME280;14201;43.188;24.160;2023-05-07T09:51:28;99853.88;;;26.90;35.45
26531;BME280;14201;43.188;24.160;2023-05-07T09:53:56;99861.72;;;26.98;34.78
26531;BME280;14201;43.188;24.160;2023-05-07T09:56:23;99853.72;;;27.40;37.22
26531;BME280;14201;43.188;24.160;2023-05-07T09:58:50;99841.00;;;27.48;38.52
26531;BME280;14201;43.188;24.160;2023-05-07T10:01:18;99843.00;;;28.14;35.04
26531;BME280;14201;43.188;24.160;2023-05-07T10:03:48;99848.28;;;27.43;34.23
26531;BME280;14201;43.188;24.160;2023-05-07T10:06:15;99840.81;;;27.58;34.90
26531;BME280;14201;43.188;24.160;2023-05-07T10:08:42;99846.78;;;28.05;35.21
26531;BME280;14201;43.188;24.160;2023-05-07T10:11:09;99841.22;;;27.39;33.50
26531;BME280;14201;43.188;24.160;2023-05-07T10:13:35;99836.50;;;27.10;34.66
26531;BME280;14201;43.188;24.160;2023-05-07T10:16:03;99841.09;;;27.81;33.99
26531;BME280;14201;43.188;24.160;2023-05-07T10:18:31;99837.22;;;28.29;35.01
26531;BME280;14201;43.188;24.160;2023-05-07T10:21:08;99832.22;;;28.81;33.55
26531;BME280;14201;43.188;24.160;2023-05-07T10:23:36;99828.13;;;28.67;33.14
26531;BME280;14201;43.188;24.160;2023-05-07T10:26:05;99816.69;;;28.61;32.09
26531;BME280;14201;43.188;24.160;2023-05-07T10:28:38;99824.97;;;28.53;31.68
26531;BME280;14201;43.188;24.160;2023-05-07T10:33:51;99819.16;;;28.69;31.17
26531;BME280;14201;43.188;24.160;2023-05-07T10:36:19;99817.84;;;29.12;33.63
26531;BME280;14201;43.188;24.160;2023-05-07T10:38:45;99806.13;;;28.86;29.45
26531;BME280;14201;43.188;24.160;2023-05-07T10:41:11;99812.56;;;29.10;30.95
26531;BME280;14201;43.188;24.160;2023-05-07T10:43:41;99802.47;;;29.47;33.23
26531;BME280;14201;43.188;24.160;2023-05-07T10:46:22;99802.31;;;28.95;29.89
26531;BME280;14201;43.188;24.160;2023-05-07T10:51:30;99793.44;;;28.61;31.03
26531;BME280;14201;43.188;24.160;2023-05-07T10:56:42;99779.47;;;28.81;30.94
26531;BME280;14201;43.188;24.160;2023-05-07T11:02:02;99783.13;;;28.15;32.16
26531;BME280;14201;43.188;24.160;2023-05-07T11:04:29;99774.22;;;27.80;32.64
26531;BME280;14201;43.188;24.160;2023-05-07T11:15:06;99785.50;;;28.88;32.00
26531;BME280;14201;43.188;24.160;2023-05-07T11:17:33;99775.63;;;28.60;31.04
26531;BME280;14201;43.188;24.160;2023-05-07T11:20:01;99777.28;;;28.64;31.76
26531;BME280;14201;43.188;24.160;2023-05-07T11:24:57;99769.72;;;27.46;32.43
26531;BME280;14201;43.188;24.160;2023-05-07T11:27:25;99762.34;;;27.56;31.09
26531;BME280;14201;43.188;24.160;2023-05-07T11:29:51;99765.28;;;28.15;32.27
26531;BME280;14201;43.188;24.160;2023-05-07T11:32:28;99767.19;;;28.73;33.16
26531;BME280;14201;43.188;24.160;2023-05-07T11:34:54;99760.34;;;29.22;30.49
26531;BME280;14201;43.188;24.160;2023-05-07T11:37:21;99764.47;;;29.32;29.19
26531;BME280;14201;43.188;24.160;2023-05-07T11:39:47;99762.63;;;28.45;30.91
26531;BME280;14201;43.188;24.160;2023-05-07T11:42:30;99759.75;;;27.87;31.65
26531;BME280;14201;43.188;24.160;2023-05-07T11:44:57;99764.25;;;28.52;32.65
26531;BME280;14201;43.188;24.160;2023-05-07T11:47:23;99754.22;;;28.59;29.92
26531;BME280;14201;43.188;24.160;2023-05-07T11:49:53;99752.34;;;28.30;29.92
26531;BME280;14201;43.188;24.160;2023-05-07T11:52:22;99749.25;;;28.75;31.76
26531;BME280;14201;43.188;24.160;2023-05-07T11:54:56;99752.97;;;28.71;30.08
26531;BME280;14201;43.188;24.160;2023-05-07T11:57:25;99743.06;;;28.41;33.32
26531;BME280;14201;43.188;24.160;2023-05-07T11:59:58;99748.22;;;28.18;32.39
26531;BME280;14201;43.188;24.160;2023-05-07T12:02:25;99752.31;;;27.64;30.45
26531;BME280;14201;43.188;24.160;2023-05-07T12:04:54;99738.69;;;27.39;33.89
26531;BME280;14201;43.188;24.160;2023-05-07T12:07:21;99732.13;;;27.15;31.03
26531;BME280;14201;43.188;24.160;2023-05-07T12:09:47;99731.13;;;26.81;32.60
26531;BME280;14201;43.188;24.160;2023-05-07T12:12:13;99734.31;;;26.57;31.86
26531;BME280;14201;43.188;24.160;2023-05-07T12:14:43;99737.69;;;27.05;30.76
26531;BME280;14201;43.188;24.160;2023-05-07T12:17:10;99729.00;;;26.96;31.21
26531;BME280;14201;43.188;24.160;2023-05-07T12:19:38;99744.22;;;27.31;32.52
26531;BME280;14201;43.188;24.160;2023-05-07T12:22:04;99732.19;;;27.11;31.18
26531;BME280;14201;43.188;24.160;2023-05-07T12:24:43;99729.13;;;27.28;30.27
26531;BME280;14201;43.188;24.160;2023-05-07T12:27:09;99721.03;;;27.66;30.57
26531;BME280;14201;43.188;24.160;2023-05-07T12:29:35;99726.66;;;28.22;29.36
26531;BME280;14201;43.188;24.160;2023-05-07T12:32:01;99724.19;;;28.46;29.08
26531;BME280;14201;43.188;24.160;2023-05-07T12:34:27;99720.53;;;28.48;28.53
26531;BME280;14201;43.188;24.160;2023-05-07T12:36:53;99710.34;;;28.61;28.22
26531;BME280;14201;43.188;24.160;2023-05-07T12:39:19;99706.66;;;28.65;28.92
26531;BME280;14201;43.188;24.160;2023-05-07T12:41:59;99705.81;;;27.68;29.87
26531;BME280;14201;43.188;24.160;2023-05-07T12:44:26;99693.19;;;27.73;29.47
26531;BME280;14201;43.188;24.160;2023-05-07T12:46:54;99712.69;;;27.44;30.26
26531;BME280;14201;43.188;24.160;2023-05-07T12:49:20;99705.13;;;27.25;31.06
26531;BME280;14201;43.188;24.160;2023-05-07T12:51:49;99697.41;;;27.11;29.95
26531;BME280;14201;43.188;24.160;2023-05-07T12:54:34;99698.66;;;27.36;30.13
26531;BME280;14201;43.188;24.160;2023-05-07T12:57:04;99695.94;;;27.70;30.05
26531;BME280;14201;43.188;24.160;2023-05-07T12:59:40;99689.19;;;27.89;29.06
26531;BME280;14201;43.188;24.160;2023-05-07T13:02:06;99694.53;;;27.89;29.35
26531;BME280;14201;43.188;24.160;2023-05-07T13:04:33;99685.53;;;27.94;31.25
26531;BME280;14201;43.188;24.160;2023-05-07T13:06:59;99686.03;;;28.06;31.22
26531;BME280;14201;43.188;24.160;2023-05-07T13:09:26;99689.03;;;28.27;29.39
26531;BME280;14201;43.188;24.160;2023-05-07T13:11:52;99688.13;;;28.26;29.50
26531;BME280;14201;43.188;24.160;2023-05-07T13:14:17;99676.31;;;28.34;30.11